createdAt,value
2018-12-07T00:00:25.201Z,101070.41
2018-12-07T00:05:19.066Z,101061.69
2018-12-07T00:10:12.440Z,101048.41
2018-12-07T00:15:07.230Z,101046.25
2018-12-07T00:20:00.440Z,101038.05
2018-12-07T00:24:53.760Z,101035.03
2018-12-07T00:29:46.946Z,101026.70
2018-12-07T00:34:40.138Z,101021.23
2018-12-07T00:39:33.386Z,101017.16
2018-12-07T00:44:26.579Z,101009.50
2018-12-07T00:49:19.803Z,100998.02
2018-12-07T00:54:13.031Z,100995.88
2018-12-07T00:59:06.249Z,100987.45
2018-12-07T01:03:59.530Z,100984.72
2018-12-07T01:08:52.830Z,100982.66
2018-12-07T01:13:46.076Z,100973.16
2018-12-07T01:18:39.301Z,100970.70
2018-12-07T01:23:32.533Z,100966.95
2018-12-07T01:28:25.753Z,100963.23
2018-12-07T01:33:19.063Z,100955.57
2018-12-07T01:38:12.343Z,100952.19
2018-12-07T01:43:05.692Z,100946.98
2018-12-07T01:47:58.932Z,100942.37
2018-12-07T01:52:52.109Z,100938.17
2018-12-07T01:57:45.293Z,100934.89
2018-12-07T02:02:38.561Z,100927.89
2018-12-07T02:07:34.113Z,100926.18
2018-12-07T02:12:28.116Z,100918.26
2018-12-07T02:17:21.363Z,100909.36
2018-12-07T02:22:14.587Z,100909.42
2018-12-07T02:27:07.808Z,100907.32
2018-12-07T02:32:01.002Z,100893.44
2018-12-07T02:36:54.322Z,100889.72
2018-12-07T02:41:47.598Z,100885.33
2018-12-07T02:46:40.953Z,100874.06
2018-12-07T02:51:34.163Z,100871.39
2018-12-07T02:56:27.409Z,100866.16
2018-12-07T03:01:20.599Z,100866.86
2018-12-07T03:06:13.879Z,100854.66
2018-12-07T03:11:07.114Z,100849.83
2018-12-07T03:16:00.356Z,100845.22
2018-12-07T03:20:53.617Z,100838.62
2018-12-07T03:25:46.806Z,100827.09
2018-12-07T03:30:40.037Z,100821.13
2018-12-07T03:35:33.269Z,100817.98
2018-12-07T03:40:26.461Z,100814.77
2018-12-07T03:45:19.964Z,100806.42
2018-12-07T03:50:13.184Z,100799.22
2018-12-07T03:55:06.370Z,100795.17
2018-12-07T03:59:59.542Z,100794.02
2018-12-07T04:04:52.761Z,100783.50
2018-12-07T04:09:45.999Z,100778.14
2018-12-07T04:14:39.186Z,100772.34
2018-12-07T04:19:32.375Z,100765.83
2018-12-07T04:24:25.596Z,100760.90
2018-12-07T04:29:18.819Z,100749.28
2018-12-07T04:34:11.973Z,100754.58
2018-12-07T04:39:06.940Z,100742.98
2018-12-07T04:44:00.141Z,100736.99
2018-12-07T04:48:53.379Z,100731.16
2018-12-07T04:53:46.627Z,100728.96
2018-12-07T04:58:39.914Z,100721.95
2018-12-07T05:03:33.053Z,100726.32
2018-12-07T05:08:26.276Z,100727.09
2018-12-07T05:13:19.873Z,100720.62
2018-12-07T05:18:13.181Z,100716.69
2018-12-07T05:23:06.933Z,100705.11
2018-12-07T05:28:00.153Z,100703.95
2018-12-07T05:32:53.376Z,100698.81
2018-12-07T05:37:47.897Z,100700.06
2018-12-07T05:42:41.183Z,100690.91
2018-12-07T05:47:34.585Z,100684.75
2018-12-07T05:52:27.778Z,100677.77
2018-12-07T05:57:21.054Z,100660.64
2018-12-07T06:02:14.287Z,100657.25
2018-12-07T06:07:07.497Z,100649.02
2018-12-07T06:12:00.784Z,100641.84
2018-12-07T06:16:54.000Z,100632.86
2018-12-07T06:21:47.275Z,100619.08
2018-12-07T06:26:40.518Z,100617.61
2018-12-07T06:31:33.745Z,100616.59
2018-12-07T06:36:26.997Z,100610.92
2018-12-07T06:41:20.243Z,100601.61
2018-12-07T06:46:13.470Z,100603.55
2018-12-07T06:51:06.729Z,100596.69
2018-12-07T06:55:59.967Z,100587.05
2018-12-07T07:00:53.225Z,100586.65
2018-12-07T07:05:46.438Z,100574.15
2018-12-07T07:10:39.611Z,100573.47
2018-12-07T07:15:32.812Z,100567.45
2018-12-07T07:20:26.035Z,100567.87
2018-12-07T07:25:19.318Z,100563.40
2018-12-07T07:30:12.645Z,100560.81
2018-12-07T07:35:06.637Z,100557.15
2018-12-07T07:39:59.813Z,100549.30
2018-12-07T07:44:53.020Z,100546.58
2018-12-07T07:49:46.359Z,100535.53
2018-12-07T07:54:39.577Z,100526.61
2018-12-07T07:59:32.900Z,100519.48
2018-12-07T08:04:26.256Z,100516.12
2018-12-07T08:09:19.474Z,100518.52
2018-12-07T08:14:12.881Z,100519.69
2018-12-07T08:19:06.275Z,100511.19
2018-12-07T08:23:59.533Z,100506.02
2018-12-07T08:28:52.774Z,100509.08
2018-12-07T08:33:46.062Z,100498.63
2018-12-07T08:38:39.847Z,100486.74
2018-12-07T08:43:33.427Z,100482.11
2018-12-07T08:48:27.598Z,100474.11
2018-12-07T08:53:20.820Z,100474.06
2018-12-07T08:58:14.042Z,100469.66
2018-12-07T09:03:07.286Z,100459.56
2018-12-07T09:08:01.164Z,100459.52
2018-12-07T09:12:54.436Z,100443.61
2018-12-07T09:17:48.789Z,100441.81
2018-12-07T09:22:42.248Z,100420.62
2018-12-07T09:27:35.474Z,100416.63
2018-12-07T09:32:28.743Z,100416.86
2018-12-07T09:37:22.031Z,100408.16
2018-12-07T09:42:15.258Z,100406.45
2018-12-07T09:47:08.445Z,100401.74
2018-12-07T09:52:01.816Z,100374.86
2018-12-07T09:56:57.005Z,100365.38
2018-12-07T10:01:50.860Z,100355.67
2018-12-07T10:06:44.074Z,100355.19
2018-12-07T10:11:37.385Z,100332.67
2018-12-07T10:16:30.629Z,100320.05
2018-12-07T10:21:23.904Z,100301.44
2018-12-07T10:26:17.116Z,100303.16
2018-12-07T10:31:10.343Z,100295.92
2018-12-07T10:36:03.694Z,100273.16
2018-12-07T10:40:57.001Z,100252.08
2018-12-07T10:45:50.213Z,100250.66
2018-12-07T10:50:43.442Z,100237.09
2018-12-07T10:55:36.642Z,100231.02
2018-12-07T11:00:35.649Z,100216.41
2018-12-07T11:05:34.476Z,100207.26
2018-12-07T11:10:33.267Z,100209.59
2018-12-07T11:15:32.087Z,100200.54
2018-12-07T11:20:31.097Z,100177.03
2018-12-07T11:25:29.993Z,100166.48
2018-12-07T11:30:30.739Z,100151.58
2018-12-07T11:35:30.132Z,100154.52
2018-12-07T11:40:23.605Z,100141.55
2018-12-07T11:45:16.783Z,100128.09
2018-12-07T11:50:10.449Z,100088.98
2018-12-07T11:55:04.492Z,100063.48
2018-12-07T11:59:57.789Z,100041.44
2018-12-07T12:04:51.000Z,100024.00
2018-12-07T12:09:44.258Z,100005.44
2018-12-07T12:14:37.490Z,99995.06
2018-12-07T12:19:30.724Z,99990.98
2018-12-07T12:24:23.900Z,99979.75
2018-12-07T12:29:17.139Z,99953.51
2018-12-07T12:34:11.317Z,99946.32
2018-12-07T12:39:07.371Z,99933.31
2018-12-07T12:44:00.660Z,99917.58
2018-12-07T12:48:53.921Z,99897.38
2018-12-07T12:53:47.164Z,99883.95
2018-12-07T12:58:40.343Z,99861.23
2018-12-07T13:03:33.547Z,99828.28
2018-12-07T13:08:27.167Z,99813.64
2018-12-07T13:13:20.383Z,99821.13
2018-12-07T13:18:13.587Z,99812.45
2018-12-07T13:23:06.809Z,99785.52
2018-12-07T13:28:00.218Z,99792.14
2018-12-07T13:32:53.493Z,99798.55
2018-12-07T13:37:46.708Z,99792.45
2018-12-07T13:42:40.040Z,99803.77
2018-12-07T13:47:33.412Z,99776.26
2018-12-07T13:52:27.254Z,99787.56
2018-12-07T13:57:20.887Z,99762.52
2018-12-07T14:02:14.349Z,99765.55
2018-12-07T14:07:07.733Z,99732.55
2018-12-07T14:12:01.217Z,99723.28
2018-12-07T14:16:54.641Z,99721.98
2018-12-07T14:21:48.091Z,99716.86
2018-12-07T14:26:41.504Z,99700.36
2018-12-07T14:31:34.806Z,99696.69
2018-12-07T14:36:28.351Z,99682.70
2018-12-07T14:41:21.987Z,99653.77
2018-12-07T14:46:15.590Z,99650.95
2018-12-07T14:51:08.935Z,99638.78
2018-12-07T14:56:02.330Z,99636.36
2018-12-07T15:00:55.911Z,99631.41
2018-12-07T15:05:49.271Z,99627.17
2018-12-07T15:10:42.591Z,99612.71
2018-12-07T15:15:35.940Z,99607.44
2018-12-07T15:20:30.158Z,99590.64
2018-12-07T15:25:24.767Z,99573.24
2018-12-07T15:30:18.192Z,99571.61
2018-12-07T15:35:11.585Z,99570.47
2018-12-07T15:40:08.074Z,99570.33
2018-12-07T15:45:01.503Z,99549.50
2018-12-07T15:49:54.752Z,99543.97
2018-12-07T15:54:48.476Z,99523.28
2018-12-07T15:59:42.633Z,99506.91
2018-12-07T16:04:36.013Z,99509.08
2018-12-07T16:09:29.647Z,99493.25
2018-12-07T16:14:23.359Z,99487.46
2018-12-07T16:19:16.755Z,99478.56
2018-12-07T16:24:10.162Z,99467.59
2018-12-07T16:29:03.612Z,99464.14
2018-12-07T16:33:57.010Z,99452.14
2018-12-07T16:38:50.529Z,99444.52
2018-12-07T16:43:44.038Z,99429.57
2018-12-07T16:48:37.683Z,99420.78
2018-12-07T16:53:31.917Z,99409.23
2018-12-07T16:58:25.224Z,99406.84
2018-12-07T17:03:19.051Z,99400.66
2018-12-07T17:08:12.844Z,99407.95
2018-12-07T17:13:06.260Z,99397.86
2018-12-07T17:17:59.644Z,99388.59
2018-12-07T17:22:53.194Z,99379.31
2018-12-07T17:27:46.597Z,99374.53
2018-12-07T17:32:40.196Z,99375.84
2018-12-07T17:37:33.686Z,99402.70
2018-12-07T17:42:29.712Z,99467.39
2018-12-07T17:47:22.509Z,99492.97
2018-12-07T17:52:15.926Z,99474.23
2018-12-07T17:57:09.314Z,99513.96
2018-12-07T18:02:02.521Z,99524.77
2018-12-07T18:06:55.826Z,99527.15
2018-12-07T18:11:49.131Z,99523.75
2018-12-07T18:16:42.948Z,99535.69
2018-12-07T18:21:36.393Z,99542.45
2018-12-07T18:26:29.756Z,99569.86
2018-12-07T18:31:23.763Z,99574.31
2018-12-07T18:36:17.112Z,99587.77
2018-12-07T18:41:10.505Z,99605.34
2018-12-07T18:46:04.164Z,99627.33
2018-12-07T18:50:57.742Z,99684.83
2018-12-07T18:55:51.419Z,99713.29
2018-12-07T19:00:45.241Z,99724.83
2018-12-07T19:05:38.978Z,99754.48
2018-12-07T19:10:32.500Z,99766.32
2018-12-07T19:15:25.819Z,99785.07
2018-12-07T19:20:19.334Z,99803.31
2018-12-07T19:25:12.826Z,99814.47
2018-12-07T19:30:14.494Z,99814.27
2018-12-07T19:35:05.760Z,99826.61
2018-12-07T19:39:59.318Z,99836.72
2018-12-07T19:44:53.719Z,99852.59
2018-12-07T19:49:47.436Z,99862.83
2018-12-07T19:54:41.203Z,99873.34
2018-12-07T19:59:34.737Z,99871.78
2018-12-07T20:04:28.060Z,99876.07
2018-12-07T20:09:21.438Z,99903.23
2018-12-07T20:14:14.851Z,99919.33
2018-12-07T20:19:08.377Z,99922.63
2018-12-07T20:24:01.913Z,99925.53
2018-12-07T20:28:55.400Z,99939.23
2018-12-07T20:33:49.196Z,99958.54
2018-12-07T20:38:43.256Z,99964.27
2018-12-07T20:43:37.133Z,99973.61
2018-12-07T20:48:31.026Z,99987.67
2018-12-07T20:53:24.398Z,99998.02
2018-12-07T20:58:17.824Z,100015.49
2018-12-07T21:03:11.410Z,100014.12
2018-12-07T21:08:12.631Z,100021.77
2018-12-07T21:13:30.700Z,100031.56
2018-12-07T21:18:24.332Z,100035.08
2018-12-07T21:23:17.929Z,100035.05
2018-12-07T21:28:11.265Z,100045.39
2018-12-07T21:33:04.677Z,100062.36
2018-12-07T21:37:57.930Z,100062.92
2018-12-07T21:42:51.202Z,100080.46
2018-12-07T21:48:49.241Z,100093.34
2018-12-07T21:53:43.358Z,100092.68
2018-12-07T21:58:37.318Z,100100.99
2018-12-07T22:03:32.217Z,100118.84
2018-12-07T22:08:25.588Z,100120.70
2018-12-07T22:13:19.217Z,100125.38
2018-12-07T22:18:12.571Z,100135.43
2018-12-07T22:23:06.109Z,100141.20
2018-12-07T22:27:59.744Z,100142.44
2018-12-07T22:32:53.163Z,100134.66
2018-12-07T22:37:46.534Z,100163.56
2018-12-07T22:42:42.877Z,100165.33
2018-12-07T22:47:36.213Z,100174.84
2018-12-07T22:52:29.498Z,100171.55
2018-12-07T22:57:23.054Z,100176.90
2018-12-07T23:02:16.574Z,100179.78
2018-12-07T23:07:10.334Z,100174.11
2018-12-07T23:12:03.612Z,100169.53
2018-12-07T23:16:56.832Z,100164.55
2018-12-07T23:21:50.067Z,100163.91
2018-12-07T23:26:43.297Z,100166.51
2018-12-07T23:31:36.649Z,100169.95
2018-12-07T23:36:29.928Z,100165.54
2018-12-07T23:41:23.146Z,100170.39
2018-12-07T23:46:16.447Z,100179.02
2018-12-07T23:51:09.717Z,100171.98
2018-12-07T23:56:03.898Z,100170.97
